createdAt,value
2019-03-30T00:01:17.524Z,46.08
2019-03-30T00:03:48.375Z,34.95
2019-03-30T00:06:18.486Z,38.02
2019-03-30T00:08:49.107Z,38.88
2019-03-30T00:11:19.637Z,38.85
2019-03-30T00:13:49.929Z,33.30
2019-03-30T00:16:20.392Z,32.20
2019-03-30T00:18:50.786Z,36.93
2019-03-30T00:21:21.260Z,36.77
2019-03-30T00:23:51.464Z,38.85
2019-03-30T00:26:21.788Z,39.20
2019-03-30T00:28:52.322Z,34.48
2019-03-30T00:31:22.748Z,33.30
2019-03-30T00:33:53.291Z,33.70
2019-03-30T00:36:23.397Z,40.95
2019-03-30T00:38:53.926Z,39.15
2019-03-30T00:41:24.734Z,39.63
2019-03-30T00:43:54.994Z,35.05
2019-03-30T00:46:25.510Z,38.90
2019-03-30T00:48:56.049Z,30.70
2019-03-30T00:51:26.569Z,30.60
2019-03-30T00:53:56.961Z,35.30
2019-03-30T00:56:27.318Z,34.95
2019-03-30T00:58:57.434Z,39.40
2019-03-30T01:01:27.766Z,35.58
2019-03-30T01:03:59.222Z,36.80
2019-03-30T01:06:29.643Z,29.92
2019-03-30T01:09:00.173Z,30.92
2019-03-30T01:11:31.227Z,28.62
2019-03-30T01:14:01.542Z,29.85
2019-03-30T01:16:31.555Z,26.37
2019-03-30T01:19:01.985Z,27.32
2019-03-30T01:21:32.731Z,27.98
2019-03-30T01:24:03.267Z,26.27
2019-03-30T01:26:33.277Z,24.57
2019-03-30T01:29:03.891Z,21.75
2019-03-30T01:31:35.255Z,25.55
2019-03-30T01:34:05.683Z,23.73
2019-03-30T01:36:36.006Z,28.25
2019-03-30T01:39:07.659Z,26.37
2019-03-30T01:41:38.175Z,26.50
2019-03-30T01:44:08.707Z,22.42
2019-03-30T01:46:39.088Z,28.90
2019-03-30T01:49:09.456Z,20.55
2019-03-30T01:51:40.104Z,23.70
2019-03-30T01:54:10.520Z,24.75
2019-03-30T01:56:41.163Z,24.10
2019-03-30T01:59:11.192Z,22.73
2019-03-30T02:01:42.517Z,23.60
2019-03-30T02:04:13.057Z,27.22
2019-03-30T02:06:43.451Z,24.80
2019-03-30T02:09:14.107Z,24.07
2019-03-30T02:11:44.741Z,27.82
2019-03-30T02:14:15.178Z,27.20
2019-03-30T02:16:45.687Z,29.48
2019-03-30T02:19:15.718Z,25.40
2019-03-30T02:21:46.136Z,27.67
2019-03-30T02:24:16.663Z,23.22
2019-03-30T02:26:47.095Z,25.27
2019-03-30T02:29:17.422Z,25.10
2019-03-30T02:31:47.850Z,25.50
2019-03-30T02:34:18.592Z,22.20
2019-03-30T02:36:48.699Z,32.25
2019-03-30T02:39:19.443Z,29.57
2019-03-30T02:41:49.554Z,33.45
2019-03-30T02:44:20.088Z,24.12
2019-03-30T02:46:50.605Z,27.73
2019-03-30T02:49:21.961Z,26.65
2019-03-30T02:51:53.182Z,29.07
2019-03-30T02:54:23.519Z,27.90
2019-03-30T02:56:54.155Z,31.33
2019-03-30T02:59:25.522Z,26.68
2019-03-30T03:01:55.957Z,30.27
2019-03-30T03:04:26.274Z,27.15
2019-03-30T03:06:56.692Z,36.75
2019-03-30T03:09:27.119Z,35.48
2019-03-30T03:11:58.067Z,37.88
2019-03-30T03:14:28.590Z,37.45
2019-03-30T03:16:58.704Z,34.48
2019-03-30T03:19:29.136Z,39.03
2019-03-30T03:21:59.452Z,39.42
2019-03-30T03:24:29.780Z,30.95
2019-03-30T03:27:00.067Z,33.33
2019-03-30T03:29:30.748Z,33.15
2019-03-30T03:32:00.954Z,33.45
2019-03-30T03:34:31.251Z,28.55
2019-03-30T03:37:01.715Z,29.87
2019-03-30T03:39:32.026Z,26.30
2019-03-30T03:42:02.564Z,29.87
2019-03-30T03:44:32.693Z,24.43
2019-03-30T03:47:03.225Z,28.35
2019-03-30T03:49:33.227Z,25.65
2019-03-30T03:52:03.757Z,30.70
2019-03-30T03:54:34.285Z,30.25
2019-03-30T03:57:04.820Z,29.05
2019-03-30T03:59:35.152Z,29.52
2019-03-30T04:02:05.582Z,27.50
2019-03-30T04:04:35.697Z,31.50
2019-03-30T04:07:06.327Z,34.98
2019-03-30T04:09:36.740Z,30.32
2019-03-30T04:12:09.072Z,30.57
2019-03-30T04:14:39.457Z,31.60
2019-03-30T04:17:09.865Z,31.52
2019-03-30T04:19:40.398Z,31.23
2019-03-30T04:22:10.819Z,28.85
2019-03-30T04:24:41.253Z,32.17
2019-03-30T04:27:11.475Z,37.15
2019-03-30T04:29:42.014Z,37.60
2019-03-30T04:32:12.425Z,43.95
2019-03-30T04:34:42.869Z,43.15
2019-03-30T04:37:12.991Z,47.73
2019-03-30T04:39:43.403Z,56.65
2019-03-30T04:42:13.935Z,59.67
2019-03-30T04:44:44.050Z,57.50
2019-03-30T04:47:14.342Z,71.50
2019-03-30T04:49:44.818Z,70.22
2019-03-30T04:52:14.941Z,80.55
2019-03-30T04:54:46.472Z,78.35
2019-03-30T04:57:16.904Z,78.17
2019-03-30T04:59:47.166Z,85.62
2019-03-30T05:02:17.451Z,81.57
2019-03-30T05:04:48.047Z,79.75
2019-03-30T05:07:18.626Z,69.17
2019-03-30T05:09:48.730Z,76.30
2019-03-30T05:12:18.850Z,69.65
2019-03-30T05:14:49.598Z,66.77
2019-03-30T05:17:19.708Z,66.20
2019-03-30T05:19:50.130Z,66.20
2019-03-30T05:22:20.458Z,63.55
2019-03-30T05:24:50.982Z,64.10
2019-03-30T05:27:21.444Z,61.80
2019-03-30T05:29:51.850Z,58.25
2019-03-30T05:32:22.260Z,54.15
2019-03-30T05:34:52.605Z,58.80
2019-03-30T05:37:23.441Z,55.30
2019-03-30T05:39:53.528Z,48.33
2019-03-30T05:42:23.947Z,46.18
2019-03-30T05:44:57.624Z,48.90
2019-03-30T05:47:26.671Z,43.83
2019-03-30T05:49:56.997Z,47.60
2019-03-30T05:52:27.348Z,51.05
2019-03-30T05:54:57.967Z,49.98
2019-03-30T05:57:28.276Z,50.33
2019-03-30T05:59:58.699Z,44.98
2019-03-30T06:02:29.148Z,42.08
2019-03-30T06:05:00.374Z,51.73
2019-03-30T06:10:01.846Z,40.55
2019-03-30T06:12:32.269Z,39.75
2019-03-30T06:15:03.181Z,38.92
2019-03-30T06:17:33.582Z,36.77
2019-03-30T06:20:05.170Z,37.28
2019-03-30T06:22:40.697Z,38.70
2019-03-30T06:25:07.688Z,39.53
2019-03-30T06:27:38.105Z,36.38
2019-03-30T06:30:16.221Z,37.65
2019-03-30T06:32:46.535Z,42.10
2019-03-30T06:35:16.971Z,41.20
2019-03-30T06:37:47.406Z,40.08
2019-03-30T06:40:18.037Z,35.45
2019-03-30T06:42:48.163Z,37.28
2019-03-30T06:45:18.679Z,50.90
2019-03-30T06:47:49.300Z,57.70
2019-03-30T06:50:19.423Z,65.20
2019-03-30T06:52:57.546Z,72.32
2019-03-30T06:55:21.717Z,73.90
2019-03-30T06:57:52.152Z,58.38
2019-03-30T07:00:32.392Z,49.30
2019-03-30T07:03:03.877Z,43.83
2019-03-30T07:05:35.180Z,40.35
2019-03-30T07:08:05.538Z,45.25
2019-03-30T07:10:38.372Z,46.23
2019-03-30T07:13:07.857Z,45.43
2019-03-30T07:15:39.818Z,47.03
2019-03-30T07:18:10.096Z,48.25
2019-03-30T07:20:40.624Z,53.50
2019-03-30T07:23:12.589Z,53.50
2019-03-30T07:25:43.324Z,55.90
2019-03-30T07:28:13.546Z,50.40
2019-03-30T07:30:44.189Z,41.55
2019-03-30T07:33:14.719Z,39.23
2019-03-30T07:35:45.135Z,50.67
2019-03-30T07:38:15.981Z,41.33
2019-03-30T07:40:46.031Z,39.73
2019-03-30T07:43:16.624Z,42.33
2019-03-30T07:45:46.966Z,32.98
2019-03-30T07:48:18.711Z,42.30
2019-03-30T07:50:48.754Z,40.95
2019-03-30T07:53:26.331Z,40.43
2019-03-30T07:55:51.409Z,45.63
2019-03-30T07:58:21.851Z,50.90
2019-03-30T08:00:52.371Z,36.40
2019-03-30T08:03:22.790Z,40.80
2019-03-30T08:05:54.465Z,28.55
2019-03-30T08:08:25.217Z,28.52
2019-03-30T08:10:55.728Z,26.68
2019-03-30T08:13:26.448Z,30.25
2019-03-30T08:15:56.570Z,31.97
2019-03-30T08:18:27.001Z,31.42
2019-03-30T08:20:57.419Z,28.07
2019-03-30T08:23:39.848Z,23.75
2019-03-30T08:26:00.441Z,27.42
2019-03-30T08:28:30.771Z,24.47
2019-03-30T08:31:01.150Z,25.52
2019-03-30T08:33:32.465Z,25.70
2019-03-30T08:36:02.967Z,27.35
2019-03-30T08:38:33.049Z,17.32
2019-03-30T08:41:03.810Z,23.42
2019-03-30T08:43:33.928Z,18.27
2019-03-30T08:46:04.674Z,32.30
2019-03-30T08:48:35.196Z,20.10
2019-03-30T08:51:07.356Z,22.87
2019-03-30T08:53:37.790Z,25.48
2019-03-30T08:56:07.972Z,21.68
2019-03-30T08:58:38.746Z,26.35
2019-03-30T09:01:09.370Z,23.15
2019-03-30T09:03:39.697Z,25.52
2019-03-30T09:06:10.069Z,25.82
2019-03-30T09:08:40.855Z,23.83
2019-03-30T09:11:11.314Z,31.15
2019-03-30T09:13:43.706Z,27.45
2019-03-30T09:16:13.880Z,23.17
2019-03-30T09:18:44.298Z,30.90
2019-03-30T09:21:14.747Z,28.05
2019-03-30T09:23:45.027Z,27.05
2019-03-30T09:26:16.760Z,24.25
2019-03-30T09:28:47.247Z,27.85
2019-03-30T09:31:17.684Z,23.57
2019-03-30T09:33:47.798Z,21.57
2019-03-30T09:36:18.237Z,23.77
2019-03-30T09:38:48.955Z,22.82
2019-03-30T09:41:19.297Z,21.02
2019-03-30T09:43:50.002Z,29.37
2019-03-30T09:46:20.428Z,24.32
2019-03-30T09:48:50.890Z,23.52
2019-03-30T09:51:21.370Z,25.15
2019-03-30T09:53:52.391Z,26.35
2019-03-30T09:56:22.966Z,21.30
2019-03-30T09:58:53.386Z,26.68
2019-03-30T10:01:23.833Z,22.10
2019-03-30T10:03:53.945Z,19.65
2019-03-30T10:06:33.921Z,20.10
2019-03-30T10:08:56.328Z,21.33
2019-03-30T10:11:26.620Z,17.23
2019-03-30T10:13:56.982Z,21.85
2019-03-30T10:16:27.246Z,22.48
2019-03-30T10:18:57.729Z,20.32
2019-03-30T10:21:28.358Z,18.80
2019-03-30T10:23:59.124Z,28.02
2019-03-30T10:26:29.944Z,23.52
2019-03-30T10:29:00.054Z,23.32
2019-03-30T10:31:30.476Z,22.75
2019-03-30T10:34:00.923Z,16.35
2019-03-30T10:36:32.461Z,36.50
2019-03-30T10:39:02.684Z,24.92
2019-03-30T10:41:34.556Z,17.80
2019-03-30T10:44:04.666Z,18.75
2019-03-30T10:46:35.106Z,19.87
2019-03-30T10:49:05.642Z,22.67
2019-03-30T10:51:36.468Z,19.57
2019-03-30T10:54:06.573Z,18.85
2019-03-30T10:56:36.978Z,16.93
2019-03-30T10:59:07.424Z,21.65
2019-03-30T11:01:37.968Z,17.75
2019-03-30T11:04:08.070Z,17.62
2019-03-30T11:06:38.604Z,18.17
2019-03-30T11:09:09.148Z,16.87
2019-03-30T11:11:39.471Z,17.85
2019-03-30T11:14:09.991Z,16.15
2019-03-30T11:16:40.941Z,22.20
2019-03-30T11:19:11.678Z,26.23
2019-03-30T11:21:41.786Z,21.50
2019-03-30T11:24:12.202Z,20.43
2019-03-30T11:26:42.839Z,21.23
2019-03-30T11:29:12.979Z,24.35
2019-03-30T11:31:44.073Z,22.00
2019-03-30T11:34:14.288Z,16.73
2019-03-30T11:36:44.449Z,22.80
2019-03-30T11:39:14.474Z,23.87
2019-03-30T11:41:44.896Z,18.82
2019-03-30T11:44:15.317Z,16.77
2019-03-30T11:46:46.672Z,20.15
2019-03-30T11:49:17.620Z,21.12
2019-03-30T11:51:48.020Z,19.65
2019-03-30T11:54:18.462Z,20.77
2019-03-30T11:56:48.998Z,28.20
2019-03-30T11:59:19.418Z,23.27
2019-03-30T12:01:49.808Z,17.48
2019-03-30T12:04:20.374Z,18.75
2019-03-30T12:06:51.979Z,17.40
2019-03-30T12:09:22.642Z,23.20
2019-03-30T12:11:53.161Z,26.12
2019-03-30T12:14:23.613Z,17.62
2019-03-30T12:16:54.041Z,20.77
2019-03-30T12:19:24.498Z,25.00
2019-03-30T12:21:55.418Z,16.85
2019-03-30T12:24:25.711Z,21.65
2019-03-30T12:26:56.115Z,16.77
2019-03-30T12:29:26.706Z,20.80
2019-03-30T12:31:57.150Z,20.95
2019-03-30T12:34:27.653Z,22.00
2019-03-30T12:36:58.280Z,22.22
2019-03-30T12:39:29.018Z,22.13
2019-03-30T12:41:59.350Z,20.97
2019-03-30T12:44:29.674Z,18.95
2019-03-30T12:46:59.781Z,21.60
2019-03-30T12:49:30.511Z,19.00
2019-03-30T12:52:01.051Z,19.02
2019-03-30T12:54:31.414Z,19.40
2019-03-30T12:57:01.971Z,16.60
2019-03-30T12:59:32.340Z,24.12
2019-03-30T13:02:02.477Z,21.52
2019-03-30T13:04:32.647Z,19.98
2019-03-30T13:07:03.096Z,21.87
2019-03-30T13:09:34.918Z,21.95
2019-03-30T13:12:05.292Z,16.23
2019-03-30T13:14:35.505Z,22.05
2019-03-30T13:17:05.934Z,21.35
2019-03-30T13:19:36.661Z,22.93
2019-03-30T13:22:07.076Z,21.90
2019-03-30T13:24:37.524Z,23.80
2019-03-30T13:27:08.982Z,23.70
2019-03-30T13:29:39.297Z,22.60
2019-03-30T13:32:10.132Z,21.10
2019-03-30T13:34:40.556Z,20.32
2019-03-30T13:37:15.593Z,20.30
2019-03-30T13:39:46.219Z,18.92
2019-03-30T13:42:16.754Z,32.10
2019-03-30T13:44:47.402Z,20.50
2019-03-30T13:47:17.713Z,20.17
2019-03-30T13:49:48.155Z,21.68
2019-03-30T13:52:18.676Z,19.40
2019-03-30T13:54:49.193Z,21.77
2019-03-30T13:57:19.634Z,16.15
2019-03-30T13:59:50.254Z,22.15
2019-03-30T14:02:20.804Z,22.95
2019-03-30T14:04:52.507Z,17.27
2019-03-30T14:07:22.976Z,22.60
2019-03-30T14:09:53.703Z,19.37
2019-03-30T14:12:24.335Z,25.37
2019-03-30T14:14:54.638Z,20.23
2019-03-30T14:17:24.969Z,22.35
2019-03-30T14:19:55.534Z,20.50
2019-03-30T14:22:25.924Z,20.43
2019-03-30T14:24:57.487Z,25.70
2019-03-30T14:27:27.917Z,21.90
2019-03-30T14:29:58.345Z,26.65
2019-03-30T14:32:28.772Z,20.92
2019-03-30T14:34:59.404Z,27.95
2019-03-30T14:37:29.839Z,25.02
2019-03-30T14:40:00.325Z,25.48
2019-03-30T14:42:30.694Z,20.60
2019-03-30T14:45:01.026Z,19.00
2019-03-30T14:47:31.225Z,18.37
2019-03-30T14:50:01.761Z,22.73
2019-03-30T14:52:32.115Z,25.00
2019-03-30T14:55:02.838Z,20.82
2019-03-30T14:57:32.944Z,23.07
2019-03-30T15:00:04.311Z,25.08
2019-03-30T15:02:34.417Z,28.67
2019-03-30T15:05:06.798Z,21.95
2019-03-30T15:07:36.900Z,22.93
2019-03-30T15:10:08.987Z,27.40
2019-03-30T15:12:39.605Z,24.53
2019-03-30T15:15:10.022Z,23.75
2019-03-30T15:17:41.351Z,19.85
2019-03-30T15:20:11.661Z,23.35
2019-03-30T15:22:42.143Z,20.52
2019-03-30T15:25:13.976Z,33.27
2019-03-30T15:27:44.438Z,27.10
2019-03-30T15:30:14.840Z,25.23
2019-03-30T15:32:45.197Z,25.30
2019-03-30T15:35:16.618Z,31.10
2019-03-30T15:37:47.151Z,23.12
2019-03-30T15:40:18.085Z,21.55
2019-03-30T15:42:48.206Z,29.30
2019-03-30T15:45:18.636Z,21.73
2019-03-30T15:47:49.286Z,25.15
2019-03-30T15:50:19.699Z,24.25
2019-03-30T15:52:50.425Z,22.58
2019-03-30T15:55:20.939Z,24.72
2019-03-30T15:57:51.497Z,25.17
2019-03-30T16:00:21.870Z,27.98
2019-03-30T16:02:52.335Z,23.57
2019-03-30T16:05:22.801Z,25.95
2019-03-30T16:07:53.297Z,27.87
2019-03-30T16:10:23.736Z,25.45
2019-03-30T16:12:53.783Z,24.95
2019-03-30T16:15:24.370Z,24.90
2019-03-30T16:17:56.550Z,33.70
2019-03-30T16:20:27.284Z,31.00
2019-03-30T16:22:57.395Z,23.60
2019-03-30T16:25:28.138Z,23.83
2019-03-30T16:27:58.555Z,24.05
2019-03-30T16:30:28.911Z,25.08
2019-03-30T16:32:59.713Z,27.77
2019-03-30T16:35:30.244Z,32.15
2019-03-30T16:38:00.650Z,34.40
2019-03-30T16:40:30.796Z,34.35
2019-03-30T16:43:02.295Z,31.77
2019-03-30T16:45:33.672Z,33.65
2019-03-30T16:48:04.226Z,38.92
2019-03-30T16:50:34.552Z,41.23
2019-03-30T16:53:05.005Z,30.27
2019-03-30T16:55:35.716Z,33.08
2019-03-30T16:58:06.513Z,38.67
2019-03-30T17:00:37.211Z,33.10
2019-03-30T17:03:07.323Z,33.92
2019-03-30T17:05:38.043Z,33.35
2019-03-30T17:08:09.220Z,35.50
2019-03-30T17:10:40.396Z,36.28
2019-03-30T17:13:10.959Z,32.98
2019-03-30T17:15:41.006Z,31.60
2019-03-30T17:18:11.821Z,35.58
2019-03-30T17:20:43.469Z,36.17
2019-03-30T17:23:13.775Z,39.65
2019-03-30T17:25:43.895Z,32.35
2019-03-30T17:28:14.126Z,35.88
2019-03-30T17:30:44.669Z,30.72
2019-03-30T17:33:14.668Z,34.80
2019-03-30T17:35:45.113Z,36.68
2019-03-30T17:38:15.742Z,44.40
2019-03-30T17:40:46.263Z,38.63
2019-03-30T17:43:16.701Z,43.35
2019-03-30T17:45:47.323Z,37.65
2019-03-30T17:48:17.744Z,37.83
2019-03-30T17:50:48.176Z,43.08
2019-03-30T17:53:18.707Z,46.85
2019-03-30T17:55:49.227Z,44.90
2019-03-30T17:58:19.669Z,39.13
2019-03-30T18:00:50.287Z,43.60
2019-03-30T18:03:20.428Z,41.40
2019-03-30T18:05:50.676Z,48.38
2019-03-30T18:08:21.677Z,42.17
2019-03-30T18:10:52.203Z,44.25
2019-03-30T18:13:22.728Z,48.90
2019-03-30T18:15:53.257Z,51.73
2019-03-30T18:18:23.616Z,49.88
2019-03-30T18:20:55.346Z,45.70
2019-03-30T18:23:25.971Z,55.52
2019-03-30T18:25:56.414Z,53.75
2019-03-30T18:28:27.661Z,57.05
2019-03-30T18:30:58.281Z,54.50
2019-03-30T18:33:28.813Z,52.45
2019-03-30T18:35:59.207Z,56.60
2019-03-30T18:38:29.571Z,59.48
2019-03-30T18:40:59.987Z,62.73
2019-03-30T18:43:30.390Z,65.03
2019-03-30T18:46:00.782Z,71.85
2019-03-30T18:48:31.233Z,89.15
2019-03-30T18:51:01.502Z,107.30
2019-03-30T18:53:32.038Z,115.80
2019-03-30T18:56:02.765Z,111.35
2019-03-30T18:58:41.659Z,116.47
2019-03-30T19:01:04.955Z,98.25
2019-03-30T19:03:35.572Z,100.50
2019-03-30T19:06:05.617Z,94.20
2019-03-30T19:08:36.436Z,91.00
2019-03-30T19:11:06.547Z,82.22
2019-03-30T19:13:37.289Z,81.75
2019-03-30T19:16:07.820Z,74.80
2019-03-30T19:18:38.354Z,80.67
2019-03-30T19:21:08.878Z,77.75
2019-03-30T19:23:38.957Z,72.90
2019-03-30T19:26:09.510Z,83.47
2019-03-30T19:28:40.043Z,89.17
2019-03-30T19:31:10.594Z,90.22
2019-03-30T19:33:40.903Z,85.92
2019-03-30T19:36:11.236Z,91.57
2019-03-30T19:38:41.560Z,84.50
2019-03-30T19:41:11.988Z,83.05
2019-03-30T19:43:42.299Z,72.10
2019-03-30T19:46:12.730Z,79.07
2019-03-30T19:48:43.471Z,70.52
2019-03-30T19:51:13.688Z,74.10
2019-03-30T19:53:44.106Z,72.15
2019-03-30T19:56:15.404Z,77.90
2019-03-30T19:58:45.984Z,87.05
2019-03-30T20:01:16.434Z,84.55
2019-03-30T20:03:46.842Z,90.25
2019-03-30T20:06:17.209Z,82.62
2019-03-30T20:08:47.590Z,77.15
2019-03-30T20:11:18.032Z,84.13
2019-03-30T20:13:48.594Z,83.05
2019-03-30T20:16:18.770Z,83.62
2019-03-30T20:18:49.211Z,82.67
2019-03-30T20:21:20.050Z,73.62
2019-03-30T20:23:50.574Z,82.40
2019-03-30T20:26:21.308Z,76.10
2019-03-30T20:28:51.412Z,80.22
2019-03-30T20:31:22.003Z,72.15
2019-03-30T20:33:52.473Z,74.20
2019-03-30T20:36:22.893Z,75.08
2019-03-30T20:38:53.278Z,79.55
2019-03-30T20:41:24.181Z,82.42
2019-03-30T20:43:54.079Z,65.10
2019-03-30T20:46:24.444Z,71.85
2019-03-30T20:48:54.902Z,73.25
2019-03-30T20:51:25.372Z,74.27
2019-03-30T20:53:55.752Z,74.12
2019-03-30T20:56:26.418Z,75.67
2019-03-30T20:58:56.471Z,86.45
2019-03-30T21:01:27.289Z,77.72
2019-03-30T21:03:57.395Z,77.03
2019-03-30T21:06:27.926Z,84.00
2019-03-30T21:08:58.468Z,87.53
2019-03-30T21:11:30.123Z,83.17
2019-03-30T21:14:00.545Z,95.17
2019-03-30T21:16:31.061Z,81.85
2019-03-30T21:19:01.463Z,77.15
2019-03-30T21:21:32.422Z,79.55
2019-03-30T21:24:02.765Z,76.42
2019-03-30T21:26:33.026Z,73.28
2019-03-30T21:29:03.507Z,82.47
2019-03-30T21:31:34.034Z,77.40
2019-03-30T21:34:04.462Z,82.45
2019-03-30T21:36:34.695Z,81.75
2019-03-30T21:39:06.043Z,84.07
2019-03-30T21:41:36.975Z,88.10
2019-03-30T21:44:21.125Z,91.42
2019-03-30T21:46:39.672Z,92.67
2019-03-30T21:49:10.091Z,86.78
2019-03-30T21:51:40.481Z,93.75
2019-03-30T21:54:11.054Z,87.00
2019-03-30T21:56:41.579Z,90.80
2019-03-30T21:59:11.987Z,98.05
2019-03-30T22:01:42.357Z,91.55
2019-03-30T22:04:12.832Z,100.00
2019-03-30T22:06:43.203Z,94.83
2019-03-30T22:09:13.706Z,94.10
2019-03-30T22:11:44.143Z,91.17
2019-03-30T22:14:14.535Z,97.37
2019-03-30T22:16:45.211Z,107.78
2019-03-30T22:19:15.316Z,100.38
2019-03-30T22:21:46.681Z,98.30
2019-03-30T22:24:16.792Z,102.30
2019-03-30T22:26:47.532Z,104.05
2019-03-30T22:29:17.861Z,106.75
2019-03-30T22:31:48.378Z,102.22
2019-03-30T22:34:18.916Z,106.35
2019-03-30T22:36:49.151Z,104.80
2019-03-30T22:39:19.359Z,117.30
2019-03-30T22:41:50.093Z,102.82
2019-03-30T22:44:20.428Z,100.00
2019-03-30T22:46:50.960Z,107.65
2019-03-30T22:49:21.358Z,100.58
2019-03-30T22:51:51.698Z,104.38
2019-03-30T22:54:22.221Z,97.05
2019-03-30T22:56:52.860Z,105.83
2019-03-30T22:59:23.277Z,97.30
2019-03-30T23:01:53.604Z,100.75
2019-03-30T23:04:23.920Z,96.02
2019-03-30T23:06:54.545Z,93.85
2019-03-30T23:09:24.981Z,97.27
2019-03-30T23:11:55.422Z,100.12
2019-03-30T23:14:25.840Z,92.92
2019-03-30T23:16:56.261Z,96.02
2019-03-30T23:19:26.996Z,94.25
2019-03-30T23:21:57.954Z,89.77
2019-03-30T23:24:28.275Z,88.12
2019-03-30T23:26:58.482Z,88.22
2019-03-30T23:29:29.331Z,93.78
2019-03-30T23:31:59.453Z,91.82
2019-03-30T23:34:29.971Z,88.20
2019-03-30T23:37:00.491Z,91.15
2019-03-30T23:39:30.992Z,92.47
2019-03-30T23:42:01.409Z,102.27
2019-03-30T23:44:32.006Z,98.97
2019-03-30T23:47:02.690Z,99.37
2019-03-30T23:49:33.159Z,85.15
2019-03-30T23:52:03.519Z,83.27
2019-03-30T23:54:33.961Z,94.07
2019-03-30T23:57:05.449Z,93.05
2019-03-30T23:59:36.080Z,95.03
